Time;durP1;ratioP1;P1;durP2;ratioP2;P2;SDS_P1;SDS_P2;PMS_P1;PMS_P2;Temp;Humidity;BMP_temperature;BMP_pressure;BME280_temperature;BME280_humidity;BME280_pressure;Samples;Min_cycle;Max_cycle;Signal;HPM_P1;HPM_P2
2022/09/06 00:00:27;;;;;;;4.43;2.25;;;18.90;99.90;;;;;;4973578;28;20070;-67
2022/09/06 00:02:52;;;;;;;4.97;2.30;;;19.00;99.90;;;;;;4973591;28;20373;-69
2022/09/06 00:05:18;;;;;;;2.90;2.30;;;19.00;99.90;;;;;;4973302;28;20034;-67
2022/09/06 00:07:43;;;;;;;5.80;3.55;;;19.00;99.90;;;;;;4973572;28;20027;-70
2022/09/06 00:10:09;;;;;;;8.32;4.20;;;19.10;99.90;;;;;;4973347;28;20047;-68
2022/09/06 00:12:35;;;;;;;4.60;2.63;;;19.20;99.90;;;;;;4972912;28;20027;-70
2022/09/06 00:15:02;;;;;;;3.70;2.55;;;19.30;99.90;;;;;;4973129;28;20475;-68
2022/09/06 00:17:27;;;;;;;6.10;3.95;;;19.40;99.90;;;;;;4973376;28;20540;-67
2022/09/06 00:19:53;;;;;;;5.97;2.75;;;19.40;99.90;;;;;;4973530;28;20042;-67
2022/09/06 00:22:19;;;;;;;5.00;2.47;;;19.40;99.90;;;;;;4973414;28;20026;-68
2022/09/06 00:24:44;;;;;;;3.58;2.38;;;19.40;99.90;;;;;;4973234;28;20521;-68
2022/09/06 00:27:10;;;;;;;4.95;2.15;;;19.50;99.90;;;;;;4973009;28;20030;-68
2022/09/06 00:29:35;;;;;;;5.82;3.25;;;19.50;99.90;;;;;;4972961;28;20110;-68
2022/09/06 00:32:01;;;;;;;4.43;2.13;;;19.50;99.90;;;;;;4973025;28;20101;-69
2022/09/06 00:34:27;;;;;;;4.43;2.80;;;19.50;99.90;;;;;;4972720;28;20077;-67
2022/09/06 00:36:53;;;;;;;3.92;2.60;;;19.60;99.90;;;;;;4974477;28;20069;-68
2022/09/06 00:39:19;;;;;;;4.13;2.47;;;19.60;99.90;;;;;;4977033;28;20431;-68
2022/09/06 00:41:44;;;;;;;5.30;2.90;;;19.60;99.90;;;;;;4976856;28;20051;-71
2022/09/06 00:44:10;;;;;;;5.60;2.67;;;19.60;99.90;;;;;;4975482;28;20042;-66
2022/09/06 00:46:38;;;;;;;3.67;2.30;;;19.70;99.90;;;;;;4976711;28;20027;-69
2022/09/06 00:49:08;;;;;;;3.13;2.50;;;19.70;99.90;;;;;;4976619;28;20037;-67
2022/09/06 00:51:34;;;;;;;5.72;2.83;;;19.60;99.90;;;;;;4976703;28;20658;-67
2022/09/06 00:54:05;;;;;;;4.95;2.53;;;19.50;99.90;;;;;;4976820;28;20066;-67
2022/09/06 00:56:32;;;;;;;4.90;2.58;;;19.40;99.90;;;;;;4974975;28;20027;-67
2022/09/06 00:58:59;;;;;;;4.00;2.30;;;19.30;99.90;;;;;;4976327;28;20051;-66
2022/09/06 01:01:25;;;;;;;4.97;2.72;;;19.20;99.90;;;;;;4976312;28;20477;-67
2022/09/06 01:03:51;;;;;;;3.88;2.70;;;19.20;99.90;;;;;;4975195;28;20023;-66
2022/09/06 01:06:16;;;;;;;4.47;2.80;;;19.00;99.90;;;;;;4976490;28;20030;-68
2022/09/06 01:08:53;;;;;;;6.72;3.33;;;19.00;99.90;;;;;;4976084;28;20019;-67
2022/09/06 01:11:56;;;;;;;4.00;2.50;;;18.90;99.90;;;;;;4976452;28;20053;-67
2022/09/06 01:14:40;;;;;;;;;;;18.90;99.90;;;;;;4976731;28;20090;-67
2022/09/06 01:17:32;;;;;;;5.47;3.42;;;18.90;99.90;;;;;;4975517;28;19906;-65
2022/09/06 01:20:31;;;;;;;4.75;3.25;;;18.90;99.90;;;;;;4976180;28;20023;-67
2022/09/06 01:23:39;;;;;;;6.47;3.20;;;18.90;99.90;;;;;;4976238;28;20022;-67
2022/09/06 01:26:15;;;;;;;4.35;2.92;;;18.90;99.90;;;;;;4975982;28;20435;-67
2022/09/06 01:28:44;;;;;;;5.43;3.30;;;18.90;99.90;;;;;;4976362;28;20038;-68
2022/09/06 01:31:15;;;;;;;5.95;3.75;;;18.90;99.90;;;;;;4976121;28;20093;-67
2022/09/06 01:34:03;;;;;;;5.07;3.20;;;19.00;99.90;;;;;;4974733;28;20055;-66
2022/09/06 01:36:34;;;;;;;6.35;3.83;;;19.00;99.90;;;;;;4976039;28;20529;-68
2022/09/06 01:39:00;;;;;;;6.22;3.90;;;19.10;99.90;;;;;;4975978;28;20057;-67
2022/09/06 01:41:26;;;;;;;4.22;3.28;;;19.00;99.90;;;;;;4975515;28;20070;-68
2022/09/06 01:43:53;;;;;;;5.05;3.42;;;19.10;99.90;;;;;;4976110;28;20039;-67
2022/09/06 01:46:24;;;;;;;7.88;3.88;;;19.10;99.90;;;;;;4975531;28;20019;-67
2022/09/06 01:49:12;;;;;;;6.47;4.10;;;19.10;99.90;;;;;;4975494;28;20034;-65
2022/09/06 01:51:57;;;;;;;8.80;3.72;;;19.10;99.90;;;;;;4975559;28;20101;-67
2022/09/06 01:54:50;;;;;;;5.15;3.42;;;19.10;99.90;;;;;;4975992;28;20038;-68
2022/09/06 01:57:22;;;;;;;6.40;3.65;;;19.10;99.90;;;;;;4975488;28;20038;-66
2022/09/06 02:00:10;;;;;;;6.93;3.20;;;19.10;99.90;;;;;;4975505;28;20027;-67
2022/09/06 02:02:47;;;;;;;7.78;3.47;;;19.10;99.90;;;;;;4975527;28;20023;-68
2022/09/06 02:05:43;;;;;;;5.70;3.22;;;19.20;99.90;;;;;;4975153;28;20031;-67
2022/09/06 02:08:14;;;;;;;6.10;3.17;;;19.20;99.90;;;;;;4975389;28;20049;-67
2022/09/06 02:10:51;;;;;;;6.22;3.72;;;19.20;99.90;;;;;;4975315;28;20046;-67
2022/09/06 02:13:20;;;;;;;6.47;3.50;;;19.20;99.90;;;;;;4975236;28;20457;-66
2022/09/06 02:15:52;;;;;;;8.80;3.67;;;19.20;99.90;;;;;;4975069;28;20109;-68
2022/09/06 02:18:24;;;;;;;6.60;3.38;;;19.10;99.90;;;;;;4974906;28;20019;-66
2022/09/06 02:20:55;;;;;;;7.05;3.50;;;19.20;99.90;;;;;;4975097;28;20050;-66
2022/09/06 02:23:24;;;;;;;9.05;4.25;;;19.20;99.90;;;;;;4973579;28;20022;-67
2022/09/06 02:25:54;;;;;;;7.93;4.22;;;19.10;99.90;;;;;;4974988;28;20026;-66
2022/09/06 02:28:20;;;;;;;8.60;4.95;;;19.10;99.90;;;;;;4974959;28;20019;-67
2022/09/06 02:30:49;;;;;;;12.10;4.93;;;19.10;99.90;;;;;;4974953;28;20029;-66
2022/09/06 02:33:27;;;;;;;11.18;5.05;;;19.10;99.90;;;;;;4973500;28;20059;-67
2022/09/06 02:35:54;;;;;;;11.57;5.72;;;19.10;99.90;;;;;;4974819;28;20041;-68
2022/09/06 02:38:25;;;;;;;10.40;5.85;;;19.10;99.90;;;;;;4974708;28;20100;-68
2022/09/06 02:40:52;;;;;;;9.55;5.75;;;19.10;99.90;;;;;;4974467;28;20033;-68
2022/09/06 02:43:18;;;;;;;13.82;6.65;;;19.00;99.90;;;;;;4974791;28;20031;-67
2022/09/06 02:45:44;;;;;;;12.63;6.32;;;19.00;99.90;;;;;;4974544;28;20069;-67
2022/09/06 02:48:09;;;;;;;14.38;7.00;;;19.00;99.90;;;;;;4974627;28;20062;-65
2022/09/06 02:50:35;;;;;;;12.90;7.07;;;19.00;99.90;;;;;;4973228;28;20054;-68
2022/09/06 02:53:08;;;;;;;13.00;7.63;;;19.00;99.90;;;;;;4974556;28;20493;-67
2022/09/06 02:55:34;;;;;;;12.55;7.40;;;19.00;99.90;;;;;;4974715;28;20023;-67
2022/09/06 02:57:59;;;;;;;15.73;8.35;;;19.00;99.90;;;;;;4974632;28;20030;-68
2022/09/06 03:00:26;;;;;;;16.88;8.88;;;19.00;99.90;;;;;;4973996;28;20023;-66
2022/09/06 03:02:51;;;;;;;17.98;9.00;;;18.90;99.90;;;;;;4974144;28;20038;-67
2022/09/06 03:05:17;;;;;;;17.25;8.95;;;19.00;99.90;;;;;;4974341;28;20030;-66
2022/09/06 03:07:42;;;;;;;16.55;8.60;;;18.90;99.90;;;;;;4974317;28;20106;-67
2022/09/06 03:10:08;;;;;;;16.15;8.80;;;18.90;99.90;;;;;;4974216;28;20049;-67
2022/09/06 03:12:34;;;;;;;15.27;8.50;;;18.90;99.90;;;;;;4974243;28;20027;-66
2022/09/06 03:14:59;;;;;;;17.00;8.63;;;18.90;99.90;;;;;;4974112;28;20439;-68
2022/09/06 03:17:25;;;;;;;18.55;8.57;;;18.90;99.90;;;;;;4974288;28;20107;-67
2022/09/06 03:19:51;;;;;;;13.73;7.70;;;18.90;99.90;;;;;;4974355;28;20018;-68
2022/09/06 03:22:16;;;;;;;13.93;8.45;;;19.00;99.90;;;;;;4974074;28;20453;-67
2022/09/06 03:24:42;;;;;;;15.65;7.32;;;19.00;99.90;;;;;;4973925;28;20109;-67
2022/09/06 03:27:07;;;;;;;22.67;14.90;;;19.00;99.90;;;;;;4973930;28;20395;-67
2022/09/06 03:29:33;;;;;;;12.95;7.82;;;19.10;99.90;;;;;;4973807;28;20034;-67
2022/09/06 03:31:58;;;;;;;13.43;7.70;;;19.10;99.90;;;;;;4973782;28;20023;-67
2022/09/06 03:34:24;;;;;;;14.43;8.50;;;19.10;99.90;;;;;;4974043;28;20027;-68
2022/09/06 03:36:49;;;;;;;14.25;8.00;;;19.10;99.90;;;;;;4973142;28;20524;-67
2022/09/06 03:39:15;;;;;;;13.75;7.80;;;19.10;99.90;;;;;;4972308;28;20045;-67
2022/09/06 03:41:40;;;;;;;16.33;8.05;;;19.10;99.90;;;;;;4973592;28;20381;-66
2022/09/06 03:44:06;;;;;;;16.95;8.50;;;19.20;99.90;;;;;;4973593;28;20085;-66
2022/09/06 03:46:32;;;;;;;14.00;7.88;;;19.20;99.90;;;;;;4973583;28;20065;-66
2022/09/06 03:48:58;;;;;;;13.93;7.60;;;19.20;99.90;;;;;;4973897;28;20054;-66
2022/09/06 03:51:24;;;;;;;14.27;7.15;;;19.20;99.90;;;;;;4973505;28;20029;-66
2022/09/06 03:53:50;;;;;;;16.27;7.65;;;19.20;99.90;;;;;;4973597;28;20030;-67
2022/09/06 03:56:15;;;;;;;13.82;7.85;;;19.30;99.90;;;;;;4973605;28;20033;-67
2022/09/06 03:58:41;;;;;;;20.00;11.98;;;19.20;99.90;;;;;;4973863;28;20050;-67
2022/09/06 04:01:09;;;;;;;14.20;8.55;;;19.30;99.90;;;;;;4973539;28;20033;-66
2022/09/06 04:03:36;;;;;;;15.82;8.30;;;19.30;99.90;;;;;;4973709;28;20029;-67
2022/09/06 04:06:02;;;;;;;13.98;8.35;;;19.30;99.90;;;;;;4971919;28;20109;-67
2022/09/06 04:08:28;;;;;;;14.13;8.32;;;19.30;99.90;;;;;;4973356;28;20023;-67
2022/09/06 04:10:55;;;;;;;14.93;8.00;;;19.30;99.90;;;;;;4973377;28;20172;-67
2022/09/06 04:13:22;;;;;;;13.07;7.47;;;19.30;99.90;;;;;;4977059;28;20027;-67
2022/09/06 04:15:48;;;;;;;12.85;7.03;;;19.30;99.90;;;;;;4977627;28;20337;-67
2022/09/06 04:18:14;;;;;;;12.32;7.00;;;19.20;99.90;;;;;;4977197;28;20035;-68
2022/09/06 04:20:41;;;;;;;13.50;6.80;;;19.20;99.90;;;;;;4977260;28;20800;-67
2022/09/06 04:23:07;;;;;;;12.43;6.82;;;19.20;99.90;;;;;;4976041;28;20027;-67
2022/09/06 04:25:32;;;;;;;11.82;6.60;;;19.10;99.90;;;;;;4976810;28;20078;-67
2022/09/06 04:27:58;;;;;;;9.50;6.00;;;19.10;99.90;;;;;;4977257;28;20504;-66
2022/09/06 04:30:24;;;;;;;15.68;6.40;;;19.10;99.90;;;;;;4976964;28;20030;-68
2022/09/06 04:32:49;;;;;;;11.75;6.25;;;19.00;99.90;;;;;;4975780;28;20318;-68
2022/09/06 04:35:15;;;;;;;12.77;6.47;;;19.00;99.90;;;;;;4977057;28;20291;-68
2022/09/06 04:37:40;;;;;;;12.82;6.50;;;19.00;99.90;;;;;;4977233;28;20029;-66
2022/09/06 04:40:06;;;;;;;11.57;5.80;;;19.00;99.90;;;;;;4976823;28;20023;-66
2022/09/06 04:42:32;;;;;;;9.80;5.72;;;19.00;99.90;;;;;;4976896;28;20037;-67
2022/09/06 04:44:57;;;;;;;10.40;5.85;;;18.90;99.90;;;;;;4976690;28;20018;-66
2022/09/06 04:47:24;;;;;;;11.13;5.70;;;18.90;99.90;;;;;;4975503;28;20458;-66
2022/09/06 04:49:50;;;;;;;10.98;6.15;;;19.00;99.90;;;;;;4976086;28;20054;-68
2022/09/06 04:52:16;;;;;;;11.05;5.93;;;19.00;99.90;;;;;;4976678;28;20363;-66
2022/09/06 04:54:41;;;;;;;11.82;6.25;;;19.00;99.90;;;;;;4976587;28;20030;-67
2022/09/06 04:57:07;;;;;;;13.00;5.93;;;19.00;99.90;;;;;;4976695;28;20038;-68
2022/09/06 04:59:33;;;;;;;12.30;5.97;;;19.00;99.90;;;;;;4976328;28;20061;-68
2022/09/06 05:01:58;;;;;;;20.70;6.20;;;19.00;99.90;;;;;;4976586;28;20346;-67
2022/09/06 05:04:24;;;;;;;11.50;6.60;;;18.90;99.90;;;;;;4976778;28;20361;-67
2022/09/06 05:07:07;;;;;;;11.52;6.15;;;18.90;99.90;;;;;;4976457;28;20054;-67
2022/09/06 05:09:33;;;;;;;10.85;6.00;;;18.90;99.90;;;;;;4976395;28;20023;-66
2022/09/06 05:11:59;;;;;;;11.82;5.97;;;18.90;99.90;;;;;;4976449;28;20037;-67
2022/09/06 05:14:26;;;;;;;9.77;6.93;;;18.80;99.90;;;;;;4976542;28;20038;-67
2022/09/06 05:16:52;;;;;;;12.30;6.93;;;18.80;99.90;;;;;;4976236;28;20129;-67
2022/09/06 05:19:18;;;;;;;11.57;6.97;;;18.80;99.90;;;;;;4976397;28;20493;-68
2022/09/06 05:21:44;;;;;;;13.45;6.75;;;18.80;99.90;;;;;;4975885;28;20034;-69
2022/09/06 05:24:09;;;;;;;15.23;6.55;;;18.80;99.90;;;;;;4975806;28;20116;-67
2022/09/06 05:26:35;;;;;;;11.15;6.30;;;18.80;99.90;;;;;;4975808;28;20050;-66
2022/09/06 05:29:00;;;;;;;13.73;6.63;;;18.80;99.90;;;;;;4976068;28;20450;-67
2022/09/06 05:31:31;;;;;;;13.35;7.03;;;18.90;99.90;;;;;;4974569;28;20372;-68
2022/09/06 05:33:57;;;;;;;13.50;7.00;;;18.90;99.90;;;;;;4976148;28;20470;-69
2022/09/06 05:36:23;;;;;;;12.75;6.68;;;18.90;99.90;;;;;;4976069;28;20102;-67
2022/09/06 05:38:50;;;;;;;16.45;7.55;;;18.90;99.90;;;;;;4976310;28;20070;-66
2022/09/06 05:41:16;;;;;;;14.10;7.15;;;19.00;99.90;;;;;;4975909;28;20046;-67
2022/09/06 05:43:41;;;;;;;14.05;7.78;;;19.10;99.90;;;;;;4975788;28;20026;-68
2022/09/06 05:46:08;;;;;;;11.77;7.15;;;19.20;99.90;;;;;;4976048;28;20038;-68
2022/09/06 05:48:33;;;;;;;12.20;7.05;;;19.20;99.90;;;;;;4975495;28;20110;-69
2022/09/06 05:51:07;;;;;;;14.73;6.60;;;19.30;99.90;;;;;;4975734;28;20114;-67
2022/09/06 05:53:37;;;;;;;14.65;6.68;;;19.40;99.90;;;;;;4975929;28;20105;-68
2022/09/06 05:56:04;;;;;;;13.15;7.07;;;19.50;99.90;;;;;;4975706;28;20444;-67
2022/09/06 05:58:29;;;;;;;12.38;6.40;;;19.60;99.90;;;;;;4975122;28;20527;-68
2022/09/06 06:01:25;;;;;;;12.63;6.65;;;19.70;99.90;;;;;;4975596;28;20080;-66
2022/09/06 06:03:56;;;;;;;15.20;6.97;;;19.80;99.90;;;;;;4985545;28;20030;-67
2022/09/06 06:06:23;;;;;;;11.95;6.22;;;19.90;99.90;;;;;;4975521;28;20023;-68
2022/09/06 06:08:48;;;;;;;15.30;7.15;;;20.00;99.90;;;;;;4975150;28;20034;-68
2022/09/06 06:11:15;;;;;;;14.57;7.22;;;20.00;99.90;;;;;;4975225;28;20051;-67
2022/09/06 06:13:42;;;;;;;18.42;7.68;;;20.10;99.90;;;;;;4986863;28;20128;-67
2022/09/06 06:16:13;;;;;;;14.32;7.40;;;20.20;99.90;;;;;;4992911;28;20033;-67
2022/09/06 06:18:39;;;;;;;14.55;7.13;;;20.20;99.90;;;;;;4994702;28;20053;-68
2022/09/06 06:21:27;;;;;;;11.50;7.38;;;20.30;99.90;;;;;;4994459;28;20034;-69
2022/09/06 06:23:55;;;;;;;14.55;7.22;;;20.30;99.90;;;;;;4994015;28;20109;-66
2022/09/06 06:26:23;;;;;;;12.18;6.93;;;20.40;99.90;;;;;;4994660;28;20141;-67
2022/09/06 06:28:49;;;;;;;15.23;7.72;;;20.50;99.90;;;;;;4994279;28;20345;-70
2022/09/06 06:31:14;;;;;;;13.15;7.70;;;20.60;99.90;;;;;;4994086;28;20026;-68
2022/09/06 06:33:40;;;;;;;14.32;8.00;;;20.60;99.90;;;;;;4993557;28;20030;-67
2022/09/06 06:36:17;;;;;;;12.55;7.65;;;20.70;99.90;;;;;;4993374;28;20052;-68
2022/09/06 06:38:45;;;;;;;13.90;7.78;;;20.80;99.90;;;;;;4994176;28;20026;-68
2022/09/06 06:41:13;;;;;;;13.45;7.78;;;20.80;99.90;;;;;;4993689;28;20392;-68
2022/09/06 06:43:39;;;;;;;13.48;8.00;;;20.80;99.90;;;;;;4993532;28;20018;-68
2022/09/06 06:46:13;;;;;;;16.63;8.48;;;20.80;99.90;;;;;;4994045;28;20367;-68
2022/09/06 06:48:40;;;;;;;15.07;8.68;;;20.80;99.90;;;;;;4993648;28;20476;-68
2022/09/06 06:51:06;;;;;;;13.45;7.97;;;20.90;99.90;;;;;;4993596;28;20029;-68
2022/09/06 06:53:32;;;;;;;15.77;8.30;;;20.90;99.90;;;;;;4993836;28;20113;-67
2022/09/06 06:55:58;;;;;;;15.50;7.82;;;21.00;99.90;;;;;;4993505;28;20146;-67
2022/09/06 06:58:24;;;;;;;13.88;8.02;;;21.00;99.90;;;;;;4992358;28;20018;-68
2022/09/06 07:00:50;;;;;;;12.13;7.20;;;21.10;99.90;;;;;;4993629;28;20030;-67
2022/09/06 07:03:15;;;;;;;14.55;8.05;;;21.20;99.90;;;;;;4993368;28;20023;-68
2022/09/06 07:05:42;;;;;;;13.38;7.07;;;21.20;99.90;;;;;;4993448;28;20184;-69
2022/09/06 07:08:08;;;;;;;15.30;7.32;;;21.30;99.90;;;;;;4992200;28;20491;-67
2022/09/06 07:10:34;;;;;;;16.45;7.65;;;21.40;99.90;;;;;;4992905;28;20053;-68
2022/09/06 07:13:00;;;;;;;11.93;6.68;;;21.50;99.90;;;;;;4993096;28;20045;-67
2022/09/06 07:15:25;;;;;;;13.38;7.15;;;21.60;99.90;;;;;;4992512;28;20022;-69
2022/09/06 07:17:53;;;;;;;11.85;6.82;;;21.70;99.90;;;;;;4992878;28;20058;-67
2022/09/06 07:20:21;;;;;;;14.52;7.68;;;21.80;99.90;;;;;;4993150;28;20113;-67
2022/09/06 07:22:58;;;;;;;14.40;7.50;;;21.90;99.90;;;;;;4993357;28;20433;-67
2022/09/06 07:25:24;;;;;;;15.23;7.90;;;22.20;99.90;;;;;;4991868;28;20034;-67
2022/09/06 07:28:05;;;;;;;12.90;7.38;;;22.50;99.90;;;;;;4993230;28;20459;-68
2022/09/06 07:30:33;;;;;;;10.57;6.55;;;22.80;99.90;;;;;;4993225;28;20524;-68
2022/09/06 07:32:59;;;;;;;13.70;6.53;;;23.30;99.90;;;;;;4992826;28;20037;-70
2022/09/06 07:35:25;;;;;;;12.00;6.32;;;23.70;99.90;;;;;;4992834;28;20109;-67
2022/09/06 07:37:55;;;;;;;10.38;6.07;;;24.10;99.90;;;;;;4992958;28;20143;-68
2022/09/06 07:40:22;;;;;;;13.10;6.72;;;24.90;99.90;;;;;;4988157;28;20014;-67
2022/09/06 07:42:48;;;;;;;12.88;6.18;;;25.80;99.90;;;;;;4992379;28;20027;-68
2022/09/06 07:45:13;;;;;;;12.65;6.93;;;26.80;99.90;;;;;;4992711;28;20085;-69
2022/09/06 07:47:39;;;;;;;8.23;5.80;;;27.80;99.90;;;;;;4992950;28;20493;-67
2022/09/06 07:50:05;;;;;;;10.75;6.45;;;28.70;97.30;;;;;;4992554;28;20023;-67
2022/09/06 07:52:30;;;;;;;12.48;6.35;;;29.40;96.30;;;;;;4992850;28;20041;-69
2022/09/06 07:54:56;;;;;;;13.27;6.20;;;30.00;95.60;;;;;;4992869;28;20030;-71
2022/09/06 07:57:22;;;;;;;14.00;6.32;;;30.60;94.50;;;;;;4992595;28;20046;-67
2022/09/06 07:59:48;;;;;;;6.68;5.35;;;30.70;93.00;;;;;;4992817;28;20113;-68
2022/09/06 08:02:15;;;;;;;11.30;6.13;;;30.60;91.60;;;;;;4992914;28;20433;-68
2022/09/06 08:04:41;;;;;;;11.75;5.63;;;30.70;92.20;;;;;;4992666;28;20038;-67
2022/09/06 08:07:07;;;;;;;10.98;5.97;;;31.20;91.60;;;;;;4992739;28;20080;-69
2022/09/06 08:09:32;;;;;;;8.77;5.43;;;31.60;90.90;;;;;;4992086;28;20029;-68
2022/09/06 08:11:58;;;;;;;9.48;5.72;;;32.10;90.50;;;;;;4992172;28;20022;-67
2022/09/06 08:14:23;;;;;;;10.30;5.25;;;32.80;89.90;;;;;;4992517;28;20018;-67
2022/09/06 08:16:49;;;;;;;7.95;5.50;;;33.10;87.70;;;;;;4992597;28;20046;-67
2022/09/06 08:19:15;;;;;;;11.07;5.63;;;33.40;85.40;;;;;;4992667;28;20026;-70
2022/09/06 08:21:40;;;;;;;9.98;5.72;;;33.50;83.70;;;;;;4991273;28;20066;-67
2022/09/06 08:24:10;;;;;;;12.05;6.72;;;33.50;83.50;;;;;;4992468;28;20133;-69
2022/09/06 08:26:43;;;;;;;8.88;5.55;;;33.60;83.40;;;;;;4992659;28;20077;-67
2022/09/06 08:29:10;;;;;;;8.20;5.82;;;33.70;82.80;;;;;;4992581;28;20054;-69
2022/09/06 08:31:38;;;;;;;10.57;5.60;;;33.80;82.90;;;;;;4992651;28;20460;-68
2022/09/06 08:34:04;;;;;;;12.07;6.00;;;34.00;82.90;;;;;;4991940;28;20019;-70
2022/09/06 08:36:30;;;;;;;12.45;6.90;;;34.00;82.40;;;;;;4990855;28;20069;-67
2022/09/06 08:39:02;;;;;;;9.25;5.88;;;33.50;82.00;;;;;;4992122;28;20026;-69
2022/09/06 08:42:04;;;;;;;10.40;6.18;;;32.80;83.70;;;;;;4992378;28;20022;-68
2022/09/06 08:44:50;;;;;;;9.93;6.20;;;32.00;85.10;;;;;;4991244;28;20345;-68
2022/09/06 08:47:17;;;;;;;8.50;5.55;;;31.20;86.40;;;;;;4992079;28;20039;-68
2022/09/06 08:49:45;;;;;;;8.98;5.60;;;30.70;87.90;;;;;;4992113;28;20023;-69
2022/09/06 08:52:40;;;;;;;9.35;6.15;;;30.40;88.10;;;;;;4992524;28;20026;-68
2022/09/06 08:55:15;;;;;;;11.82;5.80;;;30.30;89.30;;;;;;4992425;28;20121;-72
2022/09/06 08:58:14;;;;;;;10.85;5.25;;;30.80;87.70;;;;;;4992704;28;20026;-67
2022/09/06 09:00:46;;;;;;;11.38;5.60;;;31.70;87.60;;;;;;4996025;28;20034;-68
2022/09/06 09:03:22;;;;;;;13.52;5.40;;;32.70;84.20;;;;;;4995773;28;20469;-67
2022/09/06 09:05:51;;;;;;;10.05;4.70;;;33.20;82.90;;;;;;4995187;28;20354;-71
2022/09/06 09:08:40;;;;;;;8.88;5.30;;;33.70;82.20;;;;;;4995801;28;20031;-67
2022/09/06 09:11:10;;;;;;;8.70;4.90;;;34.30;80.40;;;;;;4980766;28;20464;-67
2022/09/06 09:13:51;;;;;;;8.82;5.20;;;34.50;80.70;;;;;;4995791;28;20093;-68
2022/09/06 09:16:16;;;;;;;8.20;5.28;;;34.90;79.40;;;;;;4995584;28;20065;-67
2022/09/06 09:18:52;;;;;;;6.28;4.93;;;35.10;78.30;;;;;;4995303;28;20429;-71
2022/09/06 09:21:23;;;;;;;9.15;5.35;;;34.70;78.30;;;;;;4995707;28;20018;-68
2022/09/06 09:23:55;;;;;;;8.50;5.57;;;34.70;78.60;;;;;;4995311;28;20041;-67
2022/09/06 09:26:25;;;;;;;10.23;5.40;;;34.80;77.90;;;;;;4995101;28;20034;-67
2022/09/06 09:29:11;;;;;;;8.95;5.47;;;34.90;78.00;;;;;;4995421;28;20030;-68
2022/09/06 09:31:46;;;;;;;9.07;5.40;;;34.40;79.00;;;;;;4995274;28;20026;-67
2022/09/06 09:34:32;;;;;;;8.55;5.35;;;33.70;79.70;;;;;;4995059;28;20022;-67
2022/09/06 09:37:19;;;;;;;8.20;5.05;;;33.20;80.80;;;;;;4994568;28;20022;-68
2022/09/06 09:39:46;;;;;;;8.80;5.32;;;33.40;80.40;;;;;;4994905;28;20085;-67
2022/09/06 09:42:23;;;;;;;11.13;6.05;;;33.30;81.10;;;;;;4994190;28;20097;-69
2022/09/06 09:44:49;;;;;;;9.65;5.95;;;33.50;80.50;;;;;;4994108;28;20026;-68
2022/09/06 09:47:27;;;;;;;10.77;5.53;;;33.70;80.10;;;;;;4995024;28;20077;-69
2022/09/06 09:49:53;;;;;;;10.77;5.88;;;33.90;80.70;;;;;;4995085;28;20057;-67
2022/09/06 09:52:30;;;;;;;8.40;5.75;;;34.30;79.80;;;;;;4995093;28;20330;-67
2022/09/06 09:54:59;;;;;;;10.27;5.60;;;34.50;79.00;;;;;;4994573;28;20026;-67
2022/09/06 09:57:25;;;;;;;9.73;5.55;;;34.50;79.20;;;;;;4995107;28;20037;-67
2022/09/06 09:59:57;;;;;;;9.88;6.63;;;34.70;78.20;;;;;;4994812;28;20030;-68
2022/09/06 10:02:24;;;;;;;10.95;5.30;;;35.00;77.60;;;;;;4994435;28;20105;-67
2022/09/06 10:04:52;;;;;;;8.10;5.75;;;35.10;77.00;;;;;;4994811;28;20057;-68
2022/09/06 10:07:25;;;;;;;8.68;5.45;;;34.80;77.80;;;;;;4994687;28;20019;-68
2022/09/06 10:10:09;;;;;;;9.23;6.13;;;34.90;76.50;;;;;;4994378;28;20536;-68
2022/09/06 10:12:37;;;;;;;9.23;5.72;;;34.50;77.60;;;;;;4994289;28;20026;-70
2022/09/06 10:15:10;;;;;;;10.38;6.25;;;34.40;78.30;;;;;;4994088;28;20489;-68
2022/09/06 10:17:46;;;;;;;12.65;7.28;;;33.80;78.50;;;;;;4994422;28;20026;-67
2022/09/06 10:20:12;;;;;;;13.57;7.60;;;32.60;81.30;;;;;;4994585;28;20057;-68
2022/09/06 10:23:00;;;;;;;13.45;7.78;;;31.60;84.20;;;;;;4994285;28;20057;-68
2022/09/06 10:25:47;;;;;;;12.85;6.57;;;31.50;84.60;;;;;;4993827;28;20038;-68
2022/09/06 10:28:37;;;;;;;13.00;7.30;;;31.90;84.00;;;;;;4994207;28;20018;-68
2022/09/06 10:31:31;;;;;;;13.38;7.13;;;31.90;83.80;;;;;;4994295;28;20025;-69
2022/09/06 10:34:15;;;;;;;11.55;7.78;;;31.80;84.40;;;;;;4994069;28;20022;-67
2022/09/06 10:36:59;;;;;;;12.75;7.43;;;31.70;84.90;;;;;;4994522;28;20026;-69
2022/09/06 10:39:37;;;;;;;10.77;7.18;;;32.00;86.10;;;;;;4994227;28;20110;-68
2022/09/06 10:42:18;;;;;;;13.25;6.90;;;32.80;84.30;;;;;;4994091;28;20130;-69
2022/09/06 10:45:16;;;;;;;11.68;6.93;;;33.20;83.30;;;;;;4994087;28;20022;-68
2022/09/06 10:47:54;;;;;;;10.65;7.28;;;32.80;82.80;;;;;;4993493;28;20026;-67
2022/09/06 10:50:20;;;;;;;11.75;6.75;;;32.50;83.90;;;;;;4993614;28;20106;-72
2022/09/06 10:52:47;;;;;;;11.38;6.13;;;32.80;83.40;;;;;;4993763;28;20018;-67
2022/09/06 10:55:17;;;;;;;10.07;6.07;;;33.10;83.00;;;;;;4993825;28;20470;-69
2022/09/06 10:57:50;;;;;;;6.82;4.95;;;33.50;81.00;;;;;;4993650;28;20045;-68
2022/09/06 11:00:17;;;;;;;10.10;6.07;;;34.00;79.60;;;;;;4993996;28;20076;-68
2022/09/06 11:03:00;;;;;;;11.02;5.85;;;33.70;81.00;;;;;;4993088;28;20033;-69
2022/09/06 11:05:40;;;;;;;8.60;5.50;;;33.50;81.20;;;;;;4993034;28;20113;-68
2022/09/06 11:08:32;;;;;;;13.20;5.45;;;33.40;81.50;;;;;;4993665;28;20025;-72
2022/09/06 11:11:04;;;;;;;11.57;5.35;;;33.50;81.60;;;;;;4972379;28;20500;-73
2022/09/06 11:13:31;;;;;;;8.48;4.88;;;33.20;81.40;;;;;;4993530;28;20029;-68
2022/09/06 11:16:05;;;;;;;10.13;5.22;;;32.90;82.80;;;;;;4993448;28;20045;-69
2022/09/06 11:18:38;;;;;;;7.43;4.78;;;32.90;82.40;;;;;;4993148;28;20022;-68
2022/09/06 11:21:31;;;;;;;8.52;4.85;;;33.20;82.80;;;;;;4991605;28;20453;-70
2022/09/06 11:24:13;;;;;;;9.48;5.20;;;33.80;82.20;;;;;;4993419;28;20038;-72
2022/09/06 11:27:22;;;;;;;11.23;5.63;;;34.30;80.90;;;;;;4993063;28;20022;-67
2022/09/06 11:29:55;;;;;;;10.10;5.32;;;34.70;79.50;;;;;;4993205;28;20061;-72
2022/09/06 11:32:30;;;;;;;8.95;5.32;;;35.10;78.80;;;;;;4993082;28;20097;-67
2022/09/06 11:34:57;;;;;;;8.20;4.75;;;35.50;77.40;;;;;;4993108;28;20026;-67
2022/09/06 11:37:31;;;;;;;8.95;5.25;;;35.60;76.30;;;;;;4991791;28;20022;-72
2022/09/06 11:40:05;;;;;;;12.48;5.88;;;36.00;75.80;;;;;;4991633;28;20046;-67
2022/09/06 11:42:40;;;;;;;10.32;6.22;;;35.90;75.30;;;;;;4992774;28;20034;-67
2022/09/06 11:45:13;;;;;;;13.65;6.45;;;35.70;75.90;;;;;;4992844;28;20139;-69
2022/09/06 11:47:41;;;;;;;9.40;5.80;;;36.10;75.50;;;;;;4992539;28;20030;-68
2022/09/06 11:50:19;;;;;;;11.07;6.30;;;36.30;75.30;;;;;;4992749;28;20018;-67
2022/09/06 11:53:02;;;;;;;12.07;7.28;;;36.30;74.70;;;;;;4992420;28;20118;-67
2022/09/06 11:55:37;;;;;;;11.25;6.55;;;35.90;75.60;;;;;;4993147;28;20030;-67
2022/09/06 11:58:08;;;;;;;11.35;6.55;;;36.10;75.80;;;;;;4992939;28;20073;-68
2022/09/06 12:00:34;;;;;;;13.25;6.10;;;36.40;75.50;;;;;;4992944;28;20018;-67
2022/09/06 12:03:00;;;;;;;9.95;4.80;;;36.50;74.80;;;;;;4992657;28;20023;-69
2022/09/06 12:05:30;;;;;;;8.05;4.95;;;36.20;74.80;;;;;;4992592;28;20049;-67
2022/09/06 12:08:21;;;;;;;14.18;6.63;;;36.30;75.40;;;;;;4992786;28;20037;-71
2022/09/06 12:11:26;;;;;;;11.07;5.82;;;36.60;75.00;;;;;;4992570;28;20046;-68
2022/09/06 12:14:21;;;;;;;8.93;4.47;;;36.80;73.40;;;;;;4986128;28;20042;-69
2022/09/06 12:17:03;;;;;;;8.40;5.32;;;36.20;73.50;;;;;;4992671;28;20125;-66
2022/09/06 12:19:44;;;;;;;9.57;5.20;;;36.00;74.60;;;;;;4992264;28;20453;-68
2022/09/06 12:22:39;;;;;;;7.53;5.00;;;35.90;74.80;;;;;;4992669;28;20027;-69
2022/09/06 12:25:06;;;;;;;9.65;4.45;;;35.80;75.00;;;;;;4992785;28;20026;-68
2022/09/06 12:27:49;;;;;;;8.70;4.80;;;35.40;74.90;;;;;;4992540;28;20022;-66
2022/09/06 12:30:29;;;;;;;10.63;5.90;;;35.40;75.40;;;;;;4992519;28;20816;-67
2022/09/06 12:32:57;;;;;;;12.55;6.18;;;35.40;76.10;;;;;;4993996;28;20027;-68
2022/09/06 12:35:25;;;;;;;11.57;6.10;;;35.20;75.80;;;;;;4996450;28;20022;-69
2022/09/06 12:38:05;;;;;;;10.43;6.13;;;35.10;75.60;;;;;;4996348;28;20034;-72
2022/09/06 12:40:39;;;;;;;12.70;5.18;;;34.90;75.80;;;;;;4996422;28;20134;-67
2022/09/06 12:43:09;;;;;;;11.63;5.72;;;34.70;75.70;;;;;;4995011;28;20500;-68
2022/09/06 12:45:45;;;;;;;11.35;5.65;;;34.20;76.50;;;;;;4995957;28;20088;-66
2022/09/06 12:48:24;;;;;;;9.45;4.57;;;33.80;78.40;;;;;;4996552;28;20030;-68
2022/09/06 12:51:01;;;;;;;10.98;4.55;;;33.70;78.10;;;;;;4995742;28;20466;-67
2022/09/06 12:53:27;;;;;;;7.63;4.47;;;33.60;77.50;;;;;;4996183;28;20117;-69
2022/09/06 12:56:11;;;;;;;11.07;4.72;;;33.50;77.90;;;;;;4995902;28;20102;-72
2022/09/06 12:58:38;;;;;;;11.93;4.78;;;33.20;78.50;;;;;;4995888;28;20019;-67
2022/09/06 13:01:21;;;;;;;10.63;5.25;;;33.10;79.40;;;;;;4996054;28;20022;-67